sensor_id;sensor_type;location;lat;lon;timestamp;temperature;humidity
7341;DHT22;6870;50.944;6.932;2023-09-07T00:02:10;26.60;35.00
7341;DHT22;6870;50.944;6.932;2023-09-07T00:04:39;26.50;35.00
7341;DHT22;6870;50.944;6.932;2023-09-07T00:07:07;26.40;34.90
7341;DHT22;6870;50.944;6.932;2023-09-07T00:09:35;26.50;34.90
7341;DHT22;6870;50.944;6.932;2023-09-07T00:12:03;26.50;35.20
7341;DHT22;6870;50.944;6.932;2023-09-07T00:14:33;26.30;35.20
7341;DHT22;6870;50.944;6.932;2023-09-07T00:17:01;26.40;35.00
7341;DHT22;6870;50.944;6.932;2023-09-07T00:19:31;26.60;35.30
7341;DHT22;6870;50.944;6.932;2023-09-07T00:22:03;26.70;36.20
7341;DHT22;6870;50.944;6.932;2023-09-07T00:24:32;26.40;35.30
7341;DHT22;6870;50.944;6.932;2023-09-07T00:27:00;26.50;35.30
7341;DHT22;6870;50.944;6.932;2023-09-07T00:29:34;26.50;35.60
7341;DHT22;6870;50.944;6.932;2023-09-07T00:32:03;26.50;35.70
7341;DHT22;6870;50.944;6.932;2023-09-07T00:34:32;26.40;35.60
7341;DHT22;6870;50.944;6.932;2023-09-07T00:37:00;26.40;35.70
7341;DHT22;6870;50.944;6.932;2023-09-07T00:39:28;26.40;36.00
7341;DHT22;6870;50.944;6.932;2023-09-07T00:41:56;26.60;36.30
7341;DHT22;6870;50.944;6.932;2023-09-07T00:44:24;26.50;36.10
7341;DHT22;6870;50.944;6.932;2023-09-07T00:46:54;26.50;36.00
7341;DHT22;6870;50.944;6.932;2023-09-07T00:49:23;26.50;36.00
7341;DHT22;6870;50.944;6.932;2023-09-07T00:51:52;26.60;36.30
7341;DHT22;6870;50.944;6.932;2023-09-07T00:54:21;26.00;35.70
7341;DHT22;6870;50.944;6.932;2023-09-07T00:56:50;26.50;36.30
7341;DHT22;6870;50.944;6.932;2023-09-07T00:59:18;26.60;36.50
7341;DHT22;6870;50.944;6.932;2023-09-07T01:01:46;26.20;36.30
7341;DHT22;6870;50.944;6.932;2023-09-07T01:04:17;26.40;36.60
7341;DHT22;6870;50.944;6.932;2023-09-07T01:06:47;26.40;36.70
7341;DHT22;6870;50.944;6.932;2023-09-07T01:09:21;26.60;37.10
7341;DHT22;6870;50.944;6.932;2023-09-07T01:11:50;26.40;37.00
7341;DHT22;6870;50.944;6.932;2023-09-07T01:14:19;26.30;37.00
7341;DHT22;6870;50.944;6.932;2023-09-07T01:16:48;26.30;37.20
7341;DHT22;6870;50.944;6.932;2023-09-07T01:19:18;25.90;37.00
7341;DHT22;6870;50.944;6.932;2023-09-07T01:21:48;26.50;37.20
7341;DHT22;6870;50.944;6.932;2023-09-07T01:24:17;26.20;37.40
7341;DHT22;6870;50.944;6.932;2023-09-07T01:26:45;26.30;37.20
7341;DHT22;6870;50.944;6.932;2023-09-07T01:29:16;26.50;37.70
7341;DHT22;6870;50.944;6.932;2023-09-07T01:31:44;26.10;37.40
7341;DHT22;6870;50.944;6.932;2023-09-07T01:34:12;26.00;37.30
7341;DHT22;6870;50.944;6.932;2023-09-07T01:36:41;26.30;37.60
7341;DHT22;6870;50.944;6.932;2023-09-07T01:39:11;25.90;37.20
7341;DHT22;6870;50.944;6.932;2023-09-07T01:41:39;26.10;37.40
7341;DHT22;6870;50.944;6.932;2023-09-07T01:44:07;25.90;37.30
7341;DHT22;6870;50.944;6.932;2023-09-07T01:46:35;26.40;37.70
7341;DHT22;6870;50.944;6.932;2023-09-07T01:49:03;26.30;37.70
7341;DHT22;6870;50.944;6.932;2023-09-07T01:51:31;26.20;37.50
7341;DHT22;6870;50.944;6.932;2023-09-07T01:54:00;26.00;37.40
7341;DHT22;6870;50.944;6.932;2023-09-07T01:56:29;26.40;37.90
7341;DHT22;6870;50.944;6.932;2023-09-07T01:58:57;25.80;37.40
7341;DHT22;6870;50.944;6.932;2023-09-07T02:01:27;26.30;37.60
7341;DHT22;6870;50.944;6.932;2023-09-07T02:03:57;26.40;38.40
7341;DHT22;6870;50.944;6.932;2023-09-07T02:06:25;25.80;37.30
7341;DHT22;6870;50.944;6.932;2023-09-07T02:08:53;25.80;37.20
7341;DHT22;6870;50.944;6.932;2023-09-07T02:11:21;25.70;37.70
7341;DHT22;6870;50.944;6.932;2023-09-07T02:13:51;26.10;37.50
7341;DHT22;6870;50.944;6.932;2023-09-07T02:16:19;26.10;37.40
7341;DHT22;6870;50.944;6.932;2023-09-07T02:18:49;26.00;37.30
7341;DHT22;6870;50.944;6.932;2023-09-07T02:21:18;26.20;37.50
7341;DHT22;6870;50.944;6.932;2023-09-07T02:23:46;26.10;38.40
7341;DHT22;6870;50.944;6.932;2023-09-07T02:26:14;26.30;37.60
7341;DHT22;6870;50.944;6.932;2023-09-07T02:28:42;26.20;37.50
7341;DHT22;6870;50.944;6.932;2023-09-07T02:31:11;26.20;37.60
7341;DHT22;6870;50.944;6.932;2023-09-07T02:33:39;26.30;37.60
7341;DHT22;6870;50.944;6.932;2023-09-07T02:36:08;26.30;37.60
7341;DHT22;6870;50.944;6.932;2023-09-07T02:38:36;25.90;37.90
7341;DHT22;6870;50.944;6.932;2023-09-07T02:41:04;26.00;37.70
7341;DHT22;6870;50.944;6.932;2023-09-07T02:43:32;26.20;37.50
7341;DHT22;6870;50.944;6.932;2023-09-07T02:46:00;26.20;39.00
7341;DHT22;6870;50.944;6.932;2023-09-07T02:48:29;25.90;37.40
7341;DHT22;6870;50.944;6.932;2023-09-07T02:50:58;26.00;38.20
7341;DHT22;6870;50.944;6.932;2023-09-07T02:53:26;26.00;38.50
7341;DHT22;6870;50.944;6.932;2023-09-07T02:55:54;26.10;38.00
7341;DHT22;6870;50.944;6.932;2023-09-07T02:58:23;26.30;39.30
7341;DHT22;6870;50.944;6.932;2023-09-07T03:00:51;25.90;39.00
7341;DHT22;6870;50.944;6.932;2023-09-07T03:03:19;25.80;39.10
7341;DHT22;6870;50.944;6.932;2023-09-07T03:05:48;25.70;38.20
7341;DHT22;6870;50.944;6.932;2023-09-07T03:08:16;25.80;39.10
7341;DHT22;6870;50.944;6.932;2023-09-07T03:10:44;25.90;39.00
7341;DHT22;6870;50.944;6.932;2023-09-07T03:13:12;25.60;39.70
7341;DHT22;6870;50.944;6.932;2023-09-07T03:15:41;25.90;39.00
7341;DHT22;6870;50.944;6.932;2023-09-07T03:18:09;26.10;39.20
7341;DHT22;6870;50.944;6.932;2023-09-07T03:20:37;26.10;39.80
7341;DHT22;6870;50.944;6.932;2023-09-07T03:23:06;25.80;39.20
7341;DHT22;6870;50.944;6.932;2023-09-07T03:25:34;26.20;39.90
7341;DHT22;6870;50.944;6.932;2023-09-07T03:28:03;26.10;39.70
7341;DHT22;6870;50.944;6.932;2023-09-07T03:30:31;25.90;40.20
7341;DHT22;6870;50.944;6.932;2023-09-07T03:33:00;25.80;39.60
7341;DHT22;6870;50.944;6.932;2023-09-07T03:35:28;25.70;39.50
7341;DHT22;6870;50.944;6.932;2023-09-07T03:37:56;25.90;39.70
7341;DHT22;6870;50.944;6.932;2023-09-07T03:40:25;25.50;39.90
7341;DHT22;6870;50.944;6.932;2023-09-07T03:42:53;26.10;39.90
7341;DHT22;6870;50.944;6.932;2023-09-07T03:45:21;25.60;40.20
7341;DHT22;6870;50.944;6.932;2023-09-07T03:47:50;26.00;39.60
7341;DHT22;6870;50.944;6.932;2023-09-07T03:50:18;26.00;39.20
7341;DHT22;6870;50.944;6.932;2023-09-07T03:52:46;25.80;39.20
7341;DHT22;6870;50.944;6.932;2023-09-07T03:55:14;25.90;39.30
7341;DHT22;6870;50.944;6.932;2023-09-07T03:57:44;25.60;39.00
7341;DHT22;6870;50.944;6.932;2023-09-07T04:00:13;26.10;39.20
7341;DHT22;6870;50.944;6.932;2023-09-07T04:02:42;26.30;40.20
7341;DHT22;6870;50.944;6.932;2023-09-07T04:05:10;25.80;38.90
7341;DHT22;6870;50.944;6.932;2023-09-07T04:07:38;25.70;39.50
7341;DHT22;6870;50.944;6.932;2023-09-07T04:10:07;26.00;39.20
7341;DHT22;6870;50.944;6.932;2023-09-07T04:12:35;25.70;39.70
7341;DHT22;6870;50.944;6.932;2023-09-07T04:15:06;26.10;39.10
7341;DHT22;6870;50.944;6.932;2023-09-07T04:17:35;26.20;40.00
7341;DHT22;6870;50.944;6.932;2023-09-07T04:20:08;26.20;40.00
7341;DHT22;6870;50.944;6.932;2023-09-07T04:22:38;25.60;39.60
7341;DHT22;6870;50.944;6.932;2023-09-07T04:25:07;26.10;39.70
7341;DHT22;6870;50.944;6.932;2023-09-07T04:27:35;25.70;38.80
7341;DHT22;6870;50.944;6.932;2023-09-07T04:30:07;26.00;39.30
7341;DHT22;6870;50.944;6.932;2023-09-07T04:32:36;25.70;39.20
7341;DHT22;6870;50.944;6.932;2023-09-07T04:35:05;25.70;39.90
7341;DHT22;6870;50.944;6.932;2023-09-07T04:37:33;25.60;40.40
7341;DHT22;6870;50.944;6.932;2023-09-07T04:40:02;25.60;39.80
7341;DHT22;6870;50.944;6.932;2023-09-07T04:42:32;26.10;40.50
7341;DHT22;6870;50.944;6.932;2023-09-07T04:45:00;25.50;40.50
7341;DHT22;6870;50.944;6.932;2023-09-07T04:47:29;25.50;40.20
7341;DHT22;6870;50.944;6.932;2023-09-07T04:49:58;25.60;40.10
7341;DHT22;6870;50.944;6.932;2023-09-07T04:52:26;25.60;40.50
7341;DHT22;6870;50.944;6.932;2023-09-07T04:54:54;25.50;40.80
7341;DHT22;6870;50.944;6.932;2023-09-07T04:57:22;25.70;40.70
7341;DHT22;6870;50.944;6.932;2023-09-07T04:59:50;25.70;40.80
7341;DHT22;6870;50.944;6.932;2023-09-07T05:02:18;25.70;40.70
7341;DHT22;6870;50.944;6.932;2023-09-07T05:04:48;25.60;40.50
7341;DHT22;6870;50.944;6.932;2023-09-07T05:07:16;26.10;41.00
7341;DHT22;6870;50.944;6.932;2023-09-07T05:09:44;25.70;40.70
7341;DHT22;6870;50.944;6.932;2023-09-07T05:12:13;25.60;40.60
7341;DHT22;6870;50.944;6.932;2023-09-07T05:14:45;25.90;40.80
7341;DHT22;6870;50.944;6.932;2023-09-07T05:17:13;25.60;40.50
7341;DHT22;6870;50.944;6.932;2023-09-07T05:19:41;26.10;40.90
7341;DHT22;6870;50.944;6.932;2023-09-07T05:22:11;25.60;40.40
7341;DHT22;6870;50.944;6.932;2023-09-07T05:24:39;26.10;40.60
7341;DHT22;6870;50.944;6.932;2023-09-07T05:27:07;25.90;40.40
7341;DHT22;6870;50.944;6.932;2023-09-07T05:29:37;25.60;40.20
7341;DHT22;6870;50.944;6.932;2023-09-07T05:32:05;25.90;40.10
7341;DHT22;6870;50.944;6.932;2023-09-07T05:34:34;25.70;40.40
7341;DHT22;6870;50.944;6.932;2023-09-07T05:37:02;25.70;39.60
7341;DHT22;6870;50.944;6.932;2023-09-07T05:39:31;25.80;40.40
7341;DHT22;6870;50.944;6.932;2023-09-07T05:41:59;25.90;40.20
7341;DHT22;6870;50.944;6.932;2023-09-07T05:44:27;25.90;40.10
7341;DHT22;6870;50.944;6.932;2023-09-07T05:46:55;25.60;39.60
7341;DHT22;6870;50.944;6.932;2023-09-07T05:49:25;26.10;40.80
7341;DHT22;6870;50.944;6.932;2023-09-07T05:51:53;25.80;41.40
7341;DHT22;6870;50.944;6.932;2023-09-07T05:54:22;25.80;41.50
7341;DHT22;6870;50.944;6.932;2023-09-07T05:56:51;25.50;41.60
7341;DHT22;6870;50.944;6.932;2023-09-07T05:59:19;25.60;42.00
7341;DHT22;6870;50.944;6.932;2023-09-07T06:01:47;25.60;42.00
7341;DHT22;6870;50.944;6.932;2023-09-07T06:04:15;26.10;42.40
7341;DHT22;6870;50.944;6.932;2023-09-07T06:06:43;25.70;42.40
7341;DHT22;6870;50.944;6.932;2023-09-07T06:09:11;25.70;42.60
7341;DHT22;6870;50.944;6.932;2023-09-07T06:11:39;25.80;42.60
7341;DHT22;6870;50.944;6.932;2023-09-07T06:14:09;25.70;42.60
7341;DHT22;6870;50.944;6.932;2023-09-07T06:16:37;25.60;42.90
7341;DHT22;6870;50.944;6.932;2023-09-07T06:19:06;25.50;43.10
7341;DHT22;6870;50.944;6.932;2023-09-07T06:21:34;25.60;41.80
7341;DHT22;6870;50.944;6.932;2023-09-07T06:24:02;25.90;41.20
7341;DHT22;6870;50.944;6.932;2023-09-07T06:26:33;25.60;39.90
7341;DHT22;6870;50.944;6.932;2023-09-07T06:29:01;25.80;38.40
7341;DHT22;6870;50.944;6.932;2023-09-07T06:31:30;25.50;35.20
7341;DHT22;6870;50.944;6.932;2023-09-07T06:33:58;25.80;36.50
7341;DHT22;6870;50.944;6.932;2023-09-07T06:36:26;25.70;34.20
7341;DHT22;6870;50.944;6.932;2023-09-07T06:39:13;25.40;31.20
7341;DHT22;6870;50.944;6.932;2023-09-07T06:41:41;25.50;32.10
7341;DHT22;6870;50.944;6.932;2023-09-07T06:44:09;25.70;34.20
7341;DHT22;6870;50.944;6.932;2023-09-07T06:46:42;25.30;34.30
7341;DHT22;6870;50.944;6.932;2023-09-07T06:49:10;25.60;34.90
7341;DHT22;6870;50.944;6.932;2023-09-07T06:51:38;25.20;34.80
7341;DHT22;6870;50.944;6.932;2023-09-07T06:54:06;25.40;35.60
7341;DHT22;6870;50.944;6.932;2023-09-07T06:56:34;25.50;33.20
7341;DHT22;6870;50.944;6.932;2023-09-07T06:59:03;25.50;33.70
7341;DHT22;6870;50.944;6.932;2023-09-07T07:01:31;25.60;33.70
7341;DHT22;6870;50.944;6.932;2023-09-07T07:04:00;25.20;33.00
7341;DHT22;6870;50.944;6.932;2023-09-07T07:06:28;25.70;32.80
7341;DHT22;6870;50.944;6.932;2023-09-07T07:08:56;25.60;33.10
7341;DHT22;6870;50.944;6.932;2023-09-07T07:11:24;25.70;32.50
7341;DHT22;6870;50.944;6.932;2023-09-07T07:13:52;25.40;32.60
7341;DHT22;6870;50.944;6.932;2023-09-07T07:16:21;25.80;32.20
7341;DHT22;6870;50.944;6.932;2023-09-07T07:18:58;25.50;31.50
7341;DHT22;6870;50.944;6.932;2023-09-07T07:21:48;25.40;31.00
7341;DHT22;6870;50.944;6.932;2023-09-07T07:24:16;25.60;30.60
7341;DHT22;6870;50.944;6.932;2023-09-07T07:26:44;25.70;31.20
7341;DHT22;6870;50.944;6.932;2023-09-07T07:29:13;25.50;31.00
7341;DHT22;6870;50.944;6.932;2023-09-07T07:31:41;25.50;30.60
7341;DHT22;6870;50.944;6.932;2023-09-07T07:34:10;25.50;30.50
7341;DHT22;6870;50.944;6.932;2023-09-07T07:36:39;25.60;30.50
7341;DHT22;6870;50.944;6.932;2023-09-07T07:39:07;25.60;30.60
7341;DHT22;6870;50.944;6.932;2023-09-07T07:41:35;25.60;30.20
7341;DHT22;6870;50.944;6.932;2023-09-07T07:44:06;25.70;30.00
7341;DHT22;6870;50.944;6.932;2023-09-07T07:46:34;25.30;29.60
7341;DHT22;6870;50.944;6.932;2023-09-07T07:49:04;25.60;29.50
7341;DHT22;6870;50.944;6.932;2023-09-07T07:51:33;25.90;30.40
7341;DHT22;6870;50.944;6.932;2023-09-07T07:54:01;25.80;30.00
7341;DHT22;6870;50.944;6.932;2023-09-07T07:56:29;25.60;29.70
7341;DHT22;6870;50.944;6.932;2023-09-07T07:58:59;25.70;29.80
7341;DHT22;6870;50.944;6.932;2023-09-07T08:01:28;25.70;29.80
7341;DHT22;6870;50.944;6.932;2023-09-07T08:03:56;25.50;29.70
7341;DHT22;6870;50.944;6.932;2023-09-07T08:06:29;25.60;29.30
7341;DHT22;6870;50.944;6.932;2023-09-07T08:08:59;25.90;29.50
7341;DHT22;6870;50.944;6.932;2023-09-07T08:11:27;25.70;29.80
7341;DHT22;6870;50.944;6.932;2023-09-07T08:13:55;25.70;29.80
7341;DHT22;6870;50.944;6.932;2023-09-07T08:16:24;25.20;29.20
7341;DHT22;6870;50.944;6.932;2023-09-07T08:18:52;25.90;29.70
7341;DHT22;6870;50.944;6.932;2023-09-07T08:21:20;25.70;29.40
7341;DHT22;6870;50.944;6.932;2023-09-07T08:23:49;25.50;29.30
7341;DHT22;6870;50.944;6.932;2023-09-07T08:26:19;25.70;29.70
7341;DHT22;6870;50.944;6.932;2023-09-07T08:28:47;25.60;30.10
7341;DHT22;6870;50.944;6.932;2023-09-07T08:31:15;25.20;29.70
7341;DHT22;6870;50.944;6.932;2023-09-07T08:33:49;25.40;29.90
7341;DHT22;6870;50.944;6.932;2023-09-07T08:36:18;25.50;30.00
7341;DHT22;6870;50.944;6.932;2023-09-07T08:38:50;26.00;30.00
7341;DHT22;6870;50.944;6.932;2023-09-07T08:41:22;25.70;30.20
7341;DHT22;6870;50.944;6.932;2023-09-07T08:43:53;25.50;30.60
7341;DHT22;6870;50.944;6.932;2023-09-07T08:46:22;25.80;30.50
7341;DHT22;6870;50.944;6.932;2023-09-07T08:48:51;25.70;30.00
7341;DHT22;6870;50.944;6.932;2023-09-07T08:51:22;25.50;29.80
7341;DHT22;6870;50.944;6.932;2023-09-07T08:53:50;25.60;29.80
7341;DHT22;6870;50.944;6.932;2023-09-07T08:56:18;25.60;29.80
7341;DHT22;6870;50.944;6.932;2023-09-07T08:58:49;25.70;29.90
7341;DHT22;6870;50.944;6.932;2023-09-07T09:01:17;25.60;29.40
7341;DHT22;6870;50.944;6.932;2023-09-07T09:03:46;25.80;30.10
7341;DHT22;6870;50.944;6.932;2023-09-07T09:06:14;25.90;30.00
7341;DHT22;6870;50.944;6.932;2023-09-07T09:08:46;26.00;29.70
7341;DHT22;6870;50.944;6.932;2023-09-07T09:11:16;26.00;29.80
7341;DHT22;6870;50.944;6.932;2023-09-07T09:13:46;25.80;29.30
7341;DHT22;6870;50.944;6.932;2023-09-07T09:16:15;26.30;29.20
7341;DHT22;6870;50.944;6.932;2023-09-07T09:18:47;26.30;29.20
7341;DHT22;6870;50.944;6.932;2023-09-07T09:21:19;25.90;29.40
7341;DHT22;6870;50.944;6.932;2023-09-07T09:23:48;26.00;29.40
7341;DHT22;6870;50.944;6.932;2023-09-07T09:26:18;26.30;29.30
7341;DHT22;6870;50.944;6.932;2023-09-07T09:28:47;26.30;29.40
7341;DHT22;6870;50.944;6.932;2023-09-07T09:31:17;26.20;29.10
7341;DHT22;6870;50.944;6.932;2023-09-07T09:33:48;26.00;28.90
7341;DHT22;6870;50.944;6.932;2023-09-07T09:36:18;26.60;29.10
7341;DHT22;6870;50.944;6.932;2023-09-07T09:38:48;26.30;28.80
7341;DHT22;6870;50.944;6.932;2023-09-07T09:41:17;26.70;30.40
7341;DHT22;6870;50.944;6.932;2023-09-07T09:43:48;26.10;29.20
7341;DHT22;6870;50.944;6.932;2023-09-07T09:46:18;26.00;29.20
7341;DHT22;6870;50.944;6.932;2023-09-07T09:48:47;26.60;29.20
7341;DHT22;6870;50.944;6.932;2023-09-07T09:51:17;26.40;29.10
7341;DHT22;6870;50.944;6.932;2023-09-07T09:53:46;26.50;29.20
7341;DHT22;6870;50.944;6.932;2023-09-07T09:56:15;26.20;29.10
7341;DHT22;6870;50.944;6.932;2023-09-07T09:58:44;26.60;29.70
7341;DHT22;6870;50.944;6.932;2023-09-07T10:01:14;26.60;29.00
7341;DHT22;6870;50.944;6.932;2023-09-07T10:03:46;26.50;29.00
7341;DHT22;6870;50.944;6.932;2023-09-07T10:06:19;26.40;29.00
7341;DHT22;6870;50.944;6.932;2023-09-07T10:08:57;26.40;29.00
7341;DHT22;6870;50.944;6.932;2023-09-07T10:11:33;26.40;29.20
7341;DHT22;6870;50.944;6.932;2023-09-07T10:14:02;26.70;29.70
7341;DHT22;6870;50.944;6.932;2023-09-07T10:16:43;26.30;29.00
7341;DHT22;6870;50.944;6.932;2023-09-07T10:19:16;26.50;29.60
7341;DHT22;6870;50.944;6.932;2023-09-07T10:21:46;26.50;29.20
7341;DHT22;6870;50.944;6.932;2023-09-07T10:24:24;26.60;29.30
7341;DHT22;6870;50.944;6.932;2023-09-07T10:26:57;26.60;29.30
7341;DHT22;6870;50.944;6.932;2023-09-07T10:29:26;26.50;29.40
7341;DHT22;6870;50.944;6.932;2023-09-07T10:31:56;26.50;29.30
7341;DHT22;6870;50.944;6.932;2023-09-07T10:34:36;26.50;29.20
7341;DHT22;6870;50.944;6.932;2023-09-07T10:37:06;26.50;29.20
7341;DHT22;6870;50.944;6.932;2023-09-07T10:39:37;26.90;29.60
7341;DHT22;6870;50.944;6.932;2023-09-07T10:42:06;26.50;29.70
7341;DHT22;6870;50.944;6.932;2023-09-07T10:44:34;26.50;29.40
7341;DHT22;6870;50.944;6.932;2023-09-07T10:47:04;26.70;29.60
7341;DHT22;6870;50.944;6.932;2023-09-07T10:49:32;26.60;29.60
7341;DHT22;6870;50.944;6.932;2023-09-07T10:52:00;26.60;29.40
7341;DHT22;6870;50.944;6.932;2023-09-07T10:54:28;26.70;29.40
7341;DHT22;6870;50.944;6.932;2023-09-07T10:56:56;26.60;29.00
7341;DHT22;6870;50.944;6.932;2023-09-07T10:59:27;26.50;29.00
7341;DHT22;6870;50.944;6.932;2023-09-07T11:02:04;26.60;28.90
7341;DHT22;6870;50.944;6.932;2023-09-07T11:04:33;26.80;29.30
7341;DHT22;6870;50.944;6.932;2023-09-07T11:07:02;26.80;29.10
7341;DHT22;6870;50.944;6.932;2023-09-07T11:09:31;26.80;28.90
7341;DHT22;6870;50.944;6.932;2023-09-07T11:12:04;26.80;28.80
7341;DHT22;6870;50.944;6.932;2023-09-07T11:14:32;26.70;28.80
7341;DHT22;6870;50.944;6.932;2023-09-07T11:17:01;26.80;28.80
7341;DHT22;6870;50.944;6.932;2023-09-07T11:19:33;26.70;28.80
7341;DHT22;6870;50.944;6.932;2023-09-07T11:22:01;27.20;29.00
7341;DHT22;6870;50.944;6.932;2023-09-07T11:24:31;26.90;28.90
7341;DHT22;6870;50.944;6.932;2023-09-07T11:27:00;26.90;28.90
7341;DHT22;6870;50.944;6.932;2023-09-07T11:29:31;26.70;28.90
7341;DHT22;6870;50.944;6.932;2023-09-07T11:32:06;26.90;28.90
7341;DHT22;6870;50.944;6.932;2023-09-07T11:34:35;26.80;29.10
7341;DHT22;6870;50.944;6.932;2023-09-07T11:37:15;26.70;29.00
7341;DHT22;6870;50.944;6.932;2023-09-07T11:39:44;26.60;28.90
7341;DHT22;6870;50.944;6.932;2023-09-07T11:42:12;26.70;28.80
7341;DHT22;6870;50.944;6.932;2023-09-07T11:44:40;26.90;29.00
7341;DHT22;6870;50.944;6.932;2023-09-07T11:47:08;26.60;28.80
7341;DHT22;6870;50.944;6.932;2023-09-07T11:49:37;26.90;28.90
7341;DHT22;6870;50.944;6.932;2023-09-07T11:52:06;26.90;29.60
7341;DHT22;6870;50.944;6.932;2023-09-07T11:54:34;27.00;28.70
7341;DHT22;6870;50.944;6.932;2023-09-07T11:57:04;26.90;28.80
7341;DHT22;6870;50.944;6.932;2023-09-07T11:59:32;26.80;28.80
7341;DHT22;6870;50.944;6.932;2023-09-07T12:02:20;27.30;29.30
7341;DHT22;6870;50.944;6.932;2023-09-07T12:04:50;26.80;28.90
7341;DHT22;6870;50.944;6.932;2023-09-07T12:07:18;27.10;29.20
7341;DHT22;6870;50.944;6.932;2023-09-07T12:09:46;26.90;28.80
7341;DHT22;6870;50.944;6.932;2023-09-07T12:12:15;27.20;29.00
7341;DHT22;6870;50.944;6.932;2023-09-07T12:14:43;26.90;28.90
7341;DHT22;6870;50.944;6.932;2023-09-07T12:17:11;27.00;29.00
7341;DHT22;6870;50.944;6.932;2023-09-07T12:19:39;26.90;28.80
7341;DHT22;6870;50.944;6.932;2023-09-07T12:22:09;26.90;28.90
7341;DHT22;6870;50.944;6.932;2023-09-07T12:24:38;27.10;29.00
7341;DHT22;6870;50.944;6.932;2023-09-07T12:27:06;27.00;28.90
7341;DHT22;6870;50.944;6.932;2023-09-07T12:29:34;27.00;28.90
7341;DHT22;6870;50.944;6.932;2023-09-07T12:32:02;27.10;28.60
7341;DHT22;6870;50.944;6.932;2023-09-07T12:34:30;27.00;28.40
7341;DHT22;6870;50.944;6.932;2023-09-07T12:36:58;27.20;28.70
7341;DHT22;6870;50.944;6.932;2023-09-07T12:39:28;26.80;28.50
7341;DHT22;6870;50.944;6.932;2023-09-07T12:41:56;26.90;28.50
7341;DHT22;6870;50.944;6.932;2023-09-07T12:44:24;26.90;28.50
7341;DHT22;6870;50.944;6.932;2023-09-07T12:46:52;27.00;28.60
7341;DHT22;6870;50.944;6.932;2023-09-07T12:49:20;26.90;28.50
7341;DHT22;6870;50.944;6.932;2023-09-07T12:51:48;27.10;28.30
7341;DHT22;6870;50.944;6.932;2023-09-07T12:54:16;27.00;27.90
7341;DHT22;6870;50.944;6.932;2023-09-07T12:56:46;26.70;27.90
7341;DHT22;6870;50.944;6.932;2023-09-07T12:59:14;27.00;28.00
7341;DHT22;6870;50.944;6.932;2023-09-07T13:01:42;26.90;28.00
7341;DHT22;6870;50.944;6.932;2023-09-07T13:04:10;27.10;28.10
7341;DHT22;6870;50.944;6.932;2023-09-07T13:06:39;27.30;27.90
7341;DHT22;6870;50.944;6.932;2023-09-07T13:09:07;27.40;28.00
7341;DHT22;6870;50.944;6.932;2023-09-07T13:11:36;27.50;27.80
7341;DHT22;6870;50.944;6.932;2023-09-07T13:14:07;28.00;28.00
7341;DHT22;6870;50.944;6.932;2023-09-07T13:16:38;27.80;27.90
7341;DHT22;6870;50.944;6.932;2023-09-07T13:19:06;27.80;27.70
7341;DHT22;6870;50.944;6.932;2023-09-07T13:21:34;27.80;27.60
7341;DHT22;6870;50.944;6.932;2023-09-07T13:24:02;28.00;27.80
7341;DHT22;6870;50.944;6.932;2023-09-07T13:26:31;27.80;27.50
7341;DHT22;6870;50.944;6.932;2023-09-07T13:28:59;27.90;27.60
7341;DHT22;6870;50.944;6.932;2023-09-07T13:31:28;28.20;27.70
7341;DHT22;6870;50.944;6.932;2023-09-07T13:33:56;27.80;27.50
7341;DHT22;6870;50.944;6.932;2023-09-07T13:36:25;28.20;27.70
7341;DHT22;6870;50.944;6.932;2023-09-07T13:38:53;27.70;28.00
7341;DHT22;6870;50.944;6.932;2023-09-07T13:41:23;28.30;27.60
7341;DHT22;6870;50.944;6.932;2023-09-07T13:43:51;27.80;27.10
7341;DHT22;6870;50.944;6.932;2023-09-07T13:46:20;28.40;27.80
7341;DHT22;6870;50.944;6.932;2023-09-07T13:48:51;27.90;27.10
7341;DHT22;6870;50.944;6.932;2023-09-07T13:51:19;28.40;27.30
7341;DHT22;6870;50.944;6.932;2023-09-07T13:53:47;28.20;27.20
7341;DHT22;6870;50.944;6.932;2023-09-07T13:56:17;28.40;26.90
7341;DHT22;6870;50.944;6.932;2023-09-07T13:58:45;28.10;26.70
7341;DHT22;6870;50.944;6.932;2023-09-07T14:01:13;27.40;26.30
7341;DHT22;6870;50.944;6.932;2023-09-07T14:03:42;27.80;26.50
7341;DHT22;6870;50.944;6.932;2023-09-07T14:06:11;27.40;25.10
7341;DHT22;6870;50.944;6.932;2023-09-07T14:08:39;27.10;24.30
7341;DHT22;6870;50.944;6.932;2023-09-07T14:11:07;27.70;24.70
7341;DHT22;6870;50.944;6.932;2023-09-07T14:13:35;27.30;24.80
7341;DHT22;6870;50.944;6.932;2023-09-07T14:16:04;27.50;24.80
7341;DHT22;6870;50.944;6.932;2023-09-07T14:18:32;27.50;24.20
7341;DHT22;6870;50.944;6.932;2023-09-07T14:21:01;27.00;24.10
7341;DHT22;6870;50.944;6.932;2023-09-07T14:23:31;27.20;24.30
7341;DHT22;6870;50.944;6.932;2023-09-07T14:26:00;27.20;24.10
7341;DHT22;6870;50.944;6.932;2023-09-07T14:28:28;27.10;24.70
7341;DHT22;6870;50.944;6.932;2023-09-07T14:30:56;27.50;24.90
7341;DHT22;6870;50.944;6.932;2023-09-07T14:33:25;27.20;24.80
7341;DHT22;6870;50.944;6.932;2023-09-07T14:35:53;27.10;24.90
7341;DHT22;6870;50.944;6.932;2023-09-07T14:38:22;27.40;25.60
7341;DHT22;6870;50.944;6.932;2023-09-07T14:40:54;26.90;24.50
7341;DHT22;6870;50.944;6.932;2023-09-07T14:43:23;27.20;24.90
7341;DHT22;6870;50.944;6.932;2023-09-07T14:45:51;27.20;24.70
7341;DHT22;6870;50.944;6.932;2023-09-07T14:48:19;26.90;24.90
7341;DHT22;6870;50.944;6.932;2023-09-07T14:50:47;27.00;25.00
7341;DHT22;6870;50.944;6.932;2023-09-07T14:53:15;27.40;25.20
7341;DHT22;6870;50.944;6.932;2023-09-07T14:55:44;27.10;25.30
7341;DHT22;6870;50.944;6.932;2023-09-07T14:58:14;26.90;26.20
7341;DHT22;6870;50.944;6.932;2023-09-07T15:00:42;27.10;26.10
7341;DHT22;6870;50.944;6.932;2023-09-07T15:03:10;26.90;26.00
7341;DHT22;6870;50.944;6.932;2023-09-07T15:05:38;27.20;26.20
7341;DHT22;6870;50.944;6.932;2023-09-07T15:08:07;27.10;26.10
7341;DHT22;6870;50.944;6.932;2023-09-07T15:10:35;27.20;26.20
7341;DHT22;6870;50.944;6.932;2023-09-07T15:13:03;27.10;26.10
7341;DHT22;6870;50.944;6.932;2023-09-07T15:15:35;27.00;25.80
7341;DHT22;6870;50.944;6.932;2023-09-07T15:18:06;27.00;26.00
7341;DHT22;6870;50.944;6.932;2023-09-07T15:20:35;26.90;25.70
7341;DHT22;6870;50.944;6.932;2023-09-07T15:23:03;27.20;25.80
7341;DHT22;6870;50.944;6.932;2023-09-07T15:25:31;27.00;25.80
7341;DHT22;6870;50.944;6.932;2023-09-07T15:28:00;27.00;26.00
7341;DHT22;6870;50.944;6.932;2023-09-07T15:30:28;27.10;26.10
7341;DHT22;6870;50.944;6.932;2023-09-07T15:32:57;27.00;26.10
7341;DHT22;6870;50.944;6.932;2023-09-07T15:35:25;27.00;25.80
7341;DHT22;6870;50.944;6.932;2023-09-07T15:37:53;27.30;26.30
7341;DHT22;6870;50.944;6.932;2023-09-07T15:40:21;27.10;26.10
7341;DHT22;6870;50.944;6.932;2023-09-07T15:42:49;26.90;26.00
7341;DHT22;6870;50.944;6.932;2023-09-07T15:45:17;26.80;26.00
7341;DHT22;6870;50.944;6.932;2023-09-07T15:47:45;26.90;26.00
7341;DHT22;6870;50.944;6.932;2023-09-07T15:50:16;27.00;26.10
7341;DHT22;6870;50.944;6.932;2023-09-07T15:52:45;27.30;26.30
7341;DHT22;6870;50.944;6.932;2023-09-07T15:55:15;27.00;26.10
7341;DHT22;6870;50.944;6.932;2023-09-07T15:57:45;26.90;25.20
7341;DHT22;6870;50.944;6.932;2023-09-07T16:00:14;27.00;25.60
7341;DHT22;6870;50.944;6.932;2023-09-07T16:02:43;26.90;26.00
7341;DHT22;6870;50.944;6.932;2023-09-07T16:05:12;27.00;24.90
7341;DHT22;6870;50.944;6.932;2023-09-07T16:07:41;27.50;24.30
7341;DHT22;6870;50.944;6.932;2023-09-07T16:10:10;27.30;24.00
7341;DHT22;6870;50.944;6.932;2023-09-07T16:12:39;27.60;24.80
7341;DHT22;6870;50.944;6.932;2023-09-07T16:15:08;27.40;24.20